Time;durP1;ratioP1;P1;durP2;ratioP2;P2;SDS_P1;SDS_P2;PMS_P1;PMS_P2;Temp;Humidity;BMP_temperature;BMP_pressure;BME280_temperature;BME280_humidity;BME280_pressure;Samples;Min_cycle;Max_cycle;Signal;HPM_P1;HPM_P2
2024/04/08 00:01:55;;;;;;;;;;;17.40;99.90;;;;;;5050008;28;19920;-79
2024/04/08 00:04:20;;;;;;;;;;;17.40;99.90;;;;;;5082183;28;19946;-79
2024/04/08 00:06:46;;;;;;;;;;;17.40;99.90;;;;;;5065918;28;19916;-80
2024/04/08 00:09:11;;;;;;;;;;;17.40;99.90;;;;;;5095404;28;19923;-80
2024/04/08 00:11:37;;;;;;;;;;;17.40;99.90;;;;;;5081469;28;19916;-78
2024/04/08 00:14:03;;;;;;;;;;;17.40;99.90;;;;;;5078835;28;20241;-79
2024/04/08 00:16:31;;;;;;;;;;;17.20;99.90;;;;;;5089620;28;19935;-79
2024/04/08 00:18:57;;;;;;;;;;;17.20;99.90;;;;;;5077604;28;19912;-79
2024/04/08 00:21:22;;;;;;;;;;;17.20;99.90;;;;;;5060848;28;20671;-79
2024/04/08 00:23:48;;;;;;;;;;;17.20;99.90;;;;;;5057637;28;20626;-79
2024/04/08 00:26:14;;;;;;;;;;;17.30;99.90;;;;;;5072725;28;20494;-79
2024/04/08 00:28:40;;;;;;;;;;;17.20;99.90;;;;;;5057042;28;19923;-79
2024/04/08 00:31:06;;;;;;;;;;;17.10;99.90;;;;;;5048139;28;20622;-79
2024/04/08 00:33:32;;;;;;;;;;;17.00;99.90;;;;;;5077104;28;19919;-79
2024/04/08 00:35:58;;;;;;;;;;;17.10;99.90;;;;;;5093596;28;19915;-79
2024/04/08 00:38:24;;;;;;;;;;;17.10;99.90;;;;;;5062936;28;19920;-79
2024/04/08 00:40:49;;;;;;;;;;;17.10;99.90;;;;;;5077025;28;19935;-79
2024/04/08 00:43:15;;;;;;;;;;;17.10;99.90;;;;;;5060024;28;19962;-79
2024/04/08 00:45:41;;;;;;;;;;;16.90;99.90;;;;;;5045569;28;19947;-79
2024/04/08 00:48:07;;;;;;;;;;;17.00;99.90;;;;;;5073390;28;20396;-79
2024/04/08 00:50:32;;;;;;;;;;;17.00;99.90;;;;;;5036455;28;19913;-79
2024/04/08 00:52:58;;;;;;;;;;;16.90;99.90;;;;;;5021749;28;19969;-79
2024/04/08 00:55:24;;;;;;;;;;;16.90;99.90;;;;;;5023235;28;20360;-79
2024/04/08 00:57:49;;;;;;;;;;;16.80;99.90;;;;;;5056001;28;20367;-79
2024/04/08 01:00:15;;;;;;;;;;;16.70;99.90;;;;;;5034604;28;20603;-79
2024/04/08 01:02:41;;;;;;;;;;;16.50;99.90;;;;;;5050663;28;20005;-79
2024/04/08 01:05:08;;;;;;;;;;;16.50;99.90;;;;;;5034428;28;19920;-79
2024/04/08 01:07:34;;;;;;;;;;;16.50;99.90;;;;;;5057463;28;20015;-78
2024/04/08 01:10:00;;;;;;;;;;;16.60;99.90;;;;;;5074097;28;19952;-79
2024/04/08 01:12:25;;;;;;;;;;;16.60;99.90;;;;;;5038697;28;19970;-79
2024/04/08 01:14:51;;;;;;;;;;;16.60;99.90;;;;;;5041766;28;19942;-79
2024/04/08 01:17:17;;;;;;;;;;;16.60;99.90;;;;;;5040074;28;19916;-79
2024/04/08 01:19:44;;;;;;;;;;;16.60;99.90;;;;;;5048239;28;19924;-79
2024/04/08 01:22:10;;;;;;;;;;;16.50;99.90;;;;;;5077468;28;19938;-79
2024/04/08 01:24:36;;;;;;;;;;;16.40;99.90;;;;;;5064230;28;19919;-79
2024/04/08 01:27:02;;;;;;;;;;;16.40;99.90;;;;;;5064471;28;19912;-79
2024/04/08 01:29:28;;;;;;;;;;;16.40;99.90;;;;;;5052139;28;19917;-79
2024/04/08 01:31:54;;;;;;;;;;;16.40;99.90;;;;;;5037459;28;19956;-79
2024/04/08 01:34:19;;;;;;;;;;;16.40;99.90;;;;;;5059298;28;20284;-79
2024/04/08 01:36:45;;;;;;;;;;;16.40;99.90;;;;;;5028779;28;20337;-78
2024/04/08 01:39:11;;;;;;;;;;;16.30;99.90;;;;;;5044492;28;19912;-79
2024/04/08 01:41:36;;;;;;;;;;;16.30;99.90;;;;;;5083792;28;19920;-79
2024/04/08 01:44:02;;;;;;;;;;;16.40;99.90;;;;;;5063529;28;19927;-79
2024/04/08 01:46:27;;;;;;;;;;;16.30;99.90;;;;;;5080731;28;19912;-79
2024/04/08 01:48:53;;;;;;;;;;;16.30;99.90;;;;;;5082792;28;19959;-79
2024/04/08 01:51:19;;;;;;;;;;;16.30;99.90;;;;;;5090664;28;19912;-79
2024/04/08 01:53:44;;;;;;;;;;;16.30;99.90;;;;;;5069551;28;20003;-79
2024/04/08 01:56:10;;;;;;;;;;;16.20;99.90;;;;;;5097451;28;19916;-79
2024/04/08 01:58:36;;;;;;;;;;;16.20;99.90;;;;;;5097201;28;19961;-79
2024/04/08 02:01:02;;;;;;;;;;;16.20;99.90;;;;;;5085645;28;19912;-79
2024/04/08 02:03:28;;;;;;;;;;;16.20;99.90;;;;;;5096701;28;19942;-79
2024/04/08 02:05:53;;;;;;;;;;;16.20;99.90;;;;;;5113709;28;20232;-79
2024/04/08 02:08:19;;;;;;;;;;;16.20;99.90;;;;;;5059643;28;19924;-79
2024/04/08 02:10:44;;;;;;;;;;;16.20;99.90;;;;;;5057984;28;19912;-79
2024/04/08 02:13:10;;;;;;;;;;;16.20;99.90;;;;;;5078079;28;19919;-79
2024/04/08 02:15:36;;;;;;;;;;;16.20;99.90;;;;;;5076577;28;19989;-79
2024/04/08 02:18:01;;;;;;;;;;;16.20;99.90;;;;;;5046355;28;19912;-79
2024/04/08 02:20:27;;;;;;;;;;;16.20;99.90;;;;;;5109109;28;19923;-79
2024/04/08 02:22:52;;;;;;;;;;;16.20;99.90;;;;;;5062970;28;19923;-79
2024/04/08 02:25:18;;;;;;;;;;;16.20;99.90;;;;;;5079708;28;19927;-79
2024/04/08 02:27:44;;;;;;;;;;;16.20;99.90;;;;;;5076587;28;19938;-79
2024/04/08 02:30:09;;;;;;;;;;;16.10;99.90;;;;;;5097463;28;20336;-79
2024/04/08 02:32:35;;;;;;;;;;;16.00;99.90;;;;;;5088116;28;20612;-79
2024/04/08 02:35:01;;;;;;;;;;;16.10;99.90;;;;;;5112193;28;20368;-79
2024/04/08 02:37:27;;;;;;;;;;;16.00;99.90;;;;;;5064186;28;20388;-79
2024/04/08 02:39:52;;;;;;;;;;;16.00;99.90;;;;;;5042924;28;19974;-79
2024/04/08 02:42:18;;;;;;;;;;;16.00;99.90;;;;;;5076304;28;19927;-79
2024/04/08 02:44:44;;;;;;;;;;;16.00;99.90;;;;;;5079603;28;20053;-79
2024/04/08 02:47:09;;;;;;;;;;;16.00;99.90;;;;;;5079672;28;19920;-79
2024/04/08 02:49:35;;;;;;;;;;;15.90;99.90;;;;;;5079554;28;19912;-79
2024/04/08 02:52:01;;;;;;;;;;;15.70;99.90;;;;;;5046177;28;19912;-79
2024/04/08 02:54:26;;;;;;;;;;;15.70;99.90;;;;;;5062267;28;19927;-79
2024/04/08 02:56:52;;;;;;;;;;;15.60;99.90;;;;;;5091967;28;19955;-79
2024/04/08 02:59:17;;;;;;;;;;;15.50;99.90;;;;;;5079283;28;20297;-79
2024/04/08 03:01:43;;;;;;;;;;;15.60;99.90;;;;;;5062431;28;19968;-79
2024/04/08 03:04:09;;;;;;;;;;;15.50;99.90;;;;;;5062431;28;19916;-79
2024/04/08 03:06:34;;;;;;;;;;;15.60;99.90;;;;;;5056783;28;19916;-79
2024/04/08 03:09:00;;;;;;;;;;;15.50;99.90;;;;;;5095145;28;20015;-79
2024/04/08 03:11:26;;;;;;;;;;;15.50;99.90;;;;;;5079488;28;19913;-79
2024/04/08 03:13:51;;;;;;;;;;;15.40;99.90;;;;;;5059082;28;19913;-79
2024/04/08 03:16:17;;;;;;;;;;;15.40;99.90;;;;;;5079548;28;19916;-79
2024/04/08 03:18:43;;;;;;;;;;;15.50;99.90;;;;;;5079439;28;19912;-79
2024/04/08 03:21:08;;;;;;;;;;;15.60;99.90;;;;;;5062560;28;20012;-79
2024/04/08 03:23:34;;;;;;;;;;;15.60;99.90;;;;;;5079593;28;20455;-79
2024/04/08 03:26:00;;;;;;;;;;;15.60;99.90;;;;;;5046362;28;19931;-79
2024/04/08 03:28:26;;;;;;;;;;;15.60;99.90;;;;;;5045662;28;19968;-79
2024/04/08 03:30:51;;;;;;;;;;;15.70;99.90;;;;;;5062666;28;20006;-80
2024/04/08 03:33:19;;;;;;;;;;;15.70;99.90;;;;;;5084753;28;19916;-79
2024/04/08 03:35:44;;;;;;;;;;;15.70;99.90;;;;;;5053941;28;20029;-79
2024/04/08 03:38:10;;;;;;;;;;;15.70;99.90;;;;;;5079378;28;19955;-79
2024/04/08 03:40:36;;;;;;;;;;;15.70;99.90;;;;;;5078586;28;19920;-79
2024/04/08 03:43:01;;;;;;;;;;;15.70;99.90;;;;;;5078222;28;19920;-79
2024/04/08 03:45:27;;;;;;;;;;;15.70;99.90;;;;;;5093322;28;19912;-79
2024/04/08 03:47:53;;;;;;;;;;;15.70;99.90;;;;;;5064078;28;19916;-78
2024/04/08 03:50:18;;;;;;;;;;;15.60;99.90;;;;;;5078913;28;20344;-79
2024/04/08 03:52:47;;;;;;;;;;;15.60;99.90;;;;;;5070399;28;20054;-79
2024/04/08 03:55:13;;;;;;;;;;;15.70;99.90;;;;;;5081959;28;19912;-79
2024/04/08 03:57:38;;;;;;;;;;;15.70;99.90;;;;;;5111913;28;20573;-79
2024/04/08 04:00:07;;;;;;;;;;;15.70;99.90;;;;;;5092936;28;20369;-78
2024/04/08 04:02:33;;;;;;;;;;;15.70;99.90;;;;;;5060824;28;19920;-78
2024/04/08 04:04:58;;;;;;;;;;;15.70;99.90;;;;;;5078032;28;19944;-78
2024/04/08 04:07:24;;;;;;;;;;;15.70;99.90;;;;;;5080177;28;19920;-78
2024/04/08 04:09:50;;;;;;;;;;;15.60;99.90;;;;;;5097239;28;19911;-78
2024/04/08 04:12:16;;;;;;;;;;;15.60;99.90;;;;;;5061168;28;20355;-78
2024/04/08 04:14:41;;;;;;;;;;;15.60;99.90;;;;;;5068680;28;19916;-78
2024/04/08 04:17:07;;;;;;;;;;;15.60;99.90;;;;;;5081630;28;19931;-78
2024/04/08 04:19:33;;;;;;;;;;;15.60;99.90;;;;;;5080836;28;19923;-78
2024/04/08 04:21:58;;;;;;;;;;;15.50;99.90;;;;;;5061908;28;19931;-78
2024/04/08 04:24:24;;;;;;;;;;;15.50;99.90;;;;;;5058531;28;20435;-78
2024/04/08 04:26:49;;;;;;;;;;;15.60;99.90;;;;;;5079463;28;19912;-78
2024/04/08 04:29:15;;;;;;;;;;;15.50;99.90;;;;;;5094568;28;19927;-78
2024/04/08 04:31:41;;;;;;;;;;;15.50;99.90;;;;;;5063921;28;19916;-78
2024/04/08 04:34:07;;;;;;;;;;;15.50;99.90;;;;;;5077736;28;19912;-78
2024/04/08 04:36:32;;;;;;;;;;;15.50;99.90;;;;;;5060796;28;19919;-78
2024/04/08 04:38:58;;;;;;;;;;;15.50;99.90;;;;;;5077666;28;19911;-78
2024/04/08 04:41:24;;;;;;;;;;;15.50;99.90;;;;;;5061149;28;20359;-78
2024/04/08 04:43:49;;;;;;;;;;;15.50;99.90;;;;;;5095349;28;19920;-78
2024/04/08 04:46:15;;;;;;;;;;;15.50;99.90;;;;;;5060758;28;19924;-78
2024/04/08 04:48:41;;;;;;;;;;;15.50;99.90;;;;;;5092799;28;19960;-78
2024/04/08 04:51:07;;;;;;;;;;;15.50;99.90;;;;;;5075433;28;19916;-78
2024/04/08 04:53:32;;;;;;;;;;;15.50;99.90;;;;;;5061202;28;20027;-78
2024/04/08 04:55:58;;;;;;;;;;;15.50;99.90;;;;;;5060193;28;20226;-77
2024/04/08 04:58:24;;;;;;;;;;;15.40;99.90;;;;;;5076485;28;19927;-78
2024/04/08 05:00:49;;;;;;;;;;;15.40;99.90;;;;;;5075425;28;19916;-78
2024/04/08 05:03:15;;;;;;;;;;;15.40;99.90;;;;;;5094037;28;19963;-78
2024/04/08 05:05:41;;;;;;;;;;;15.40;99.90;;;;;;5043958;28;19912;-77
2024/04/08 05:08:07;;;;;;;;;;;15.40;99.90;;;;;;5077579;28;19919;-77
2024/04/08 05:10:32;;;;;;;;;;;15.40;99.90;;;;;;5089110;28;19962;-78
2024/04/08 05:12:58;;;;;;;;;;;15.40;99.90;;;;;;5088201;28;19927;-77
2024/04/08 05:15:23;;;;;;;;;;;15.40;99.90;;;;;;5095146;28;19920;-77
2024/04/08 05:17:49;;;;;;;;;;;15.40;99.90;;;;;;5057312;28;19916;-77
2024/04/08 05:20:15;;;;;;;;;;;15.40;99.90;;;;;;5046980;28;19917;-77
2024/04/08 05:22:46;;;;;;;;;;;15.30;99.90;;;;;;5059975;28;19924;-77
2024/04/08 05:25:12;;;;;;;;;;;15.30;99.90;;;;;;5044224;28;19912;-77
2024/04/08 05:27:38;;;;;;;;;;;15.30;99.90;;;;;;5103796;28;19939;-77
2024/04/08 05:30:05;;;;;;;;;;;15.30;99.90;;;;;;5058318;28;19951;-78
2024/04/08 05:32:30;;;;;;;;;;;15.30;99.90;;;;;;5076409;28;19920;-77
2024/04/08 05:34:56;;;;;;;;;;;15.30;99.90;;;;;;5040098;28;19912;-76
2024/04/08 05:37:22;;;;;;;;;;;15.30;99.90;;;;;;5059877;28;19948;-77
2024/04/08 05:39:47;;;;;;;;;;;15.30;99.90;;;;;;5043342;28;19963;-77
2024/04/08 05:42:13;;;;;;;;;;;15.30;99.90;;;;;;5059312;28;19969;-77
2024/04/08 05:44:39;;;;;;;;;;;15.30;99.90;;;;;;5037365;28;19912;-77
2024/04/08 05:47:05;;;;;;;;;;;15.30;99.90;;;;;;5049675;28;19958;-77
2024/04/08 05:49:30;;;;;;;;;;;15.30;99.90;;;;;;5076177;28;19916;-78
2024/04/08 05:51:56;;;;;;;;;;;15.30;99.90;;;;;;5076042;28;19916;-77
2024/04/08 05:54:23;;;;;;;;;;;15.30;99.90;;;;;;5085323;28;20061;-77
2024/04/08 05:56:49;;;;;;;;;;;15.30;99.90;;;;;;5058307;28;19923;-77
2024/04/08 05:59:15;;;;;;;;;;;15.20;99.90;;;;;;5061430;28;19916;-76
2024/04/08 06:01:40;;;;;;;;;;;15.20;99.90;;;;;;5098522;28;19919;-77
2024/04/08 06:04:08;;;;;;;;;;;15.20;99.90;;;;;;5059792;28;19912;-77
2024/04/08 06:06:33;;;;;;;;;;;15.10;99.90;;;;;;5060535;28;19912;-77
2024/04/08 06:09:05;;;;;;;;;;;15.20;99.90;;;;;;5094689;28;19912;-77
2024/04/08 06:11:31;;;;;;;;;;;15.30;99.90;;;;;;5060303;28;19913;-76
2024/04/08 06:13:57;;;;;;;;;;;15.30;99.90;;;;;;5062490;28;20329;-77
2024/04/08 06:16:22;;;;;;;;;;;15.30;99.90;;;;;;5080312;28;19919;-77
2024/04/08 06:18:48;;;;;;;;;;;15.40;99.90;;;;;;5079229;28;19923;-77
2024/04/08 06:21:13;;;;;;;;;;;15.40;99.90;;;;;;5060127;28;20003;-78
2024/04/08 06:23:39;;;;;;;;;;;15.40;99.90;;;;;;5046293;28;19920;-77
2024/04/08 06:26:05;;;;;;;;;;;15.40;99.90;;;;;;5063208;28;19919;-76
2024/04/08 06:28:30;;;;;;;;;;;15.20;99.90;;;;;;5081644;28;19916;-78
2024/04/08 06:30:56;;;;;;;;;;;15.30;99.90;;;;;;5079459;28;19920;-76
2024/04/08 06:33:22;;;;;;;;;;;15.40;99.90;;;;;;5113019;28;20006;-77
2024/04/08 06:35:47;;;;;;;;;;;15.50;99.90;;;;;;5062334;28;19944;-76
2024/04/08 06:38:13;;;;;;;;;;;15.50;99.90;;;;;;5068634;28;20011;-76
2024/04/08 06:40:39;;;;;;;;;;;15.50;99.90;;;;;;5071724;28;20367;-76
2024/04/08 06:44:21;;;;;;;;;;;15.60;99.90;;;;;;5470531;26;20348;-77
2024/04/08 06:46:46;;;;;;;;;;;15.60;99.90;;;;;;5403133;26;19929;-77
2024/04/08 06:49:12;;;;;;;;;;;15.60;99.90;;;;;;5438023;26;19939;-77
2024/04/08 06:51:37;;;;;;;;;;;15.60;99.90;;;;;;5376881;26;19929;-77
2024/04/08 06:54:04;;;;;;;;;;;15.70;99.90;;;;;;5421537;26;20291;-76
2024/04/08 06:56:29;;;;;;;;;;;15.70;99.90;;;;;;5445597;26;19929;-77
2024/04/08 06:58:55;;;;;;;;;;;15.80;99.90;;;;;;5434062;26;19929;-75
2024/04/08 07:01:21;;;;;;;;;;;15.80;99.90;;;;;;5433466;26;19929;-76
2024/04/08 07:03:47;;;;;;;;;;;15.80;99.90;;;;;;5445690;26;19952;-76
2024/04/08 07:06:13;;;;;;;;;;;15.80;99.90;;;;;;5488823;26;20005;-76
2024/04/08 07:08:38;;;;;;;;;;;15.80;99.90;;;;;;5388680;26;19936;-77
2024/04/08 07:11:04;;;;;;;;;;;15.80;99.90;;;;;;5402911;26;19961;-76
2024/04/08 07:13:29;;;;;;;;;;;15.80;99.90;;;;;;5415260;26;19940;-77
2024/04/08 07:15:55;;;;;;;;;;;15.80;99.90;;;;;;5490316;26;20301;-75
2024/04/08 07:18:21;;;;;;;;;;;15.80;99.90;;;;;;5467200;26;19929;-76
2024/04/08 07:20:47;;;;;;;;;;;15.80;99.90;;;;;;5373918;26;19973;-76
2024/04/08 07:23:13;;;;;;;;;;;15.70;99.90;;;;;;5432432;26;19929;-76
2024/04/08 07:25:38;;;;;;;;;;;15.70;99.90;;;;;;5402232;26;19998;-75
2024/04/08 07:28:04;;;;;;;;;;;15.60;99.90;;;;;;5428722;26;19928;-76
2024/04/08 07:30:30;;;;;;;;;;;15.50;99.90;;;;;;5432845;26;19940;-76
2024/04/08 07:32:57;;;;;;;;;;;15.60;99.90;;;;;;5431137;26;19935;-76
2024/04/08 07:35:23;;;;;;;;;;;15.60;99.90;;;;;;5467268;26;19928;-76
2024/04/08 07:37:49;;;;;;;;;;;15.60;99.90;;;;;;5413125;26;20357;-76
2024/04/08 07:40:14;;;;;;;;;;;15.70;99.90;;;;;;5433516;26;19929;-77
2024/04/08 07:42:41;;;;;;;;;;;15.70;99.90;;;;;;5430134;26;19939;-76
2024/04/08 07:45:07;;;;;;;;;;;15.80;99.90;;;;;;5412014;26;20385;-77
2024/04/08 07:47:32;;;;;;;;;;;15.90;99.90;;;;;;5430286;26;19940;-76
2024/04/08 07:49:58;;;;;;;;;;;15.90;99.90;;;;;;5461194;26;19993;-77
2024/04/08 07:52:24;;;;;;;;;;;16.00;99.90;;;;;;5433786;26;19941;-77
2024/04/08 07:54:49;;;;;;;;;;;16.00;99.90;;;;;;5449295;26;19928;-77
2024/04/08 07:57:15;;;;;;;;;;;16.00;99.90;;;;;;5458755;26;19939;-76
2024/04/08 07:59:41;;;;;;;;;;;16.00;99.90;;;;;;5389278;26;19937;-76
2024/04/08 08:02:07;;;;;;;;;;;16.10;99.90;;;;;;5413660;26;19929;-77
2024/04/08 08:04:32;;;;;;;;;;;16.10;99.90;;;;;;5417247;26;19929;-77
2024/04/08 08:06:58;;;;;;;;;;;16.20;99.90;;;;;;5438741;26;19936;-76
2024/04/08 08:09:24;;;;;;;;;;;16.20;99.90;;;;;;5386535;26;19990;-76
2024/04/08 08:11:49;;;;;;;;;;;16.30;99.90;;;;;;5428819;26;20365;-76
2024/04/08 08:14:15;;;;;;;;;;;16.30;99.90;;;;;;5422295;26;19940;-76
2024/04/08 08:16:42;;;;;;;;;;;16.40;99.90;;;;;;5452114;26;19999;-77
2024/04/08 08:19:08;;;;;;;;;;;16.40;99.90;;;;;;5402323;26;20008;-77
2024/04/08 08:21:33;;;;;;;;;;;16.50;99.90;;;;;;5415952;26;19948;-76
2024/04/08 08:23:59;;;;;;;;;;;16.60;99.90;;;;;;5439233;26;19995;-77
2024/04/08 08:26:28;;;;;;;;;;;16.60;99.90;;;;;;5433067;26;19936;-76
2024/04/08 08:28:54;;;;;;;;;;;16.70;99.90;;;;;;5387937;26;19955;-76
2024/04/08 08:31:20;;;;;;;;;;;16.80;99.90;;;;;;5391486;26;19929;-76
2024/04/08 08:33:46;;;;;;;;;;;16.80;99.90;;;;;;5445607;26;19932;-79
2024/04/08 08:36:12;;;;;;;;;;;16.90;99.90;;;;;;5423053;26;19990;-77
2024/04/08 08:38:37;;;;;;;;;;;16.90;99.90;;;;;;5452281;26;20356;-76
2024/04/08 08:41:04;;;;;;;;;;;17.00;99.90;;;;;;5421759;26;20326;-76
2024/04/08 08:43:29;;;;;;;;;;;17.00;99.90;;;;;;5446257;26;19999;-77
2024/04/08 08:45:55;;;;;;;;;;;17.10;99.90;;;;;;5386288;26;19936;-76
2024/04/08 08:48:21;;;;;;;;;;;17.10;99.90;;;;;;5437505;26;20270;-77
2024/04/08 08:50:47;;;;;;;;;;;17.20;99.90;;;;;;5443221;26;19940;-77
2024/04/08 08:53:13;;;;;;;;;;;17.20;99.90;;;;;;5391529;26;19936;-79
2024/04/08 08:55:38;;;;;;;;;;;17.20;99.90;;;;;;5388737;26;20617;-78
2024/04/08 08:58:09;;;;;;;;;;;17.30;99.90;;;;;;5437567;26;19935;-78
2024/04/08 09:00:37;;;;;;;;;;;17.40;99.90;;;;;;5417055;26;19940;-79
2024/04/08 09:03:02;;;;;;;;;;;17.40;99.90;;;;;;5410886;26;19929;-78
2024/04/08 09:05:28;;;;;;;;;;;17.50;99.90;;;;;;5452227;26;19940;-79
2024/04/08 09:07:53;;;;;;;;;;;17.60;99.90;;;;;;5392253;26;19961;-79
2024/04/08 09:10:20;;;;;;;;;;;17.70;99.90;;;;;;5422402;26;20351;-78
2024/04/08 09:12:46;;;;;;;;;;;17.80;99.90;;;;;;5457380;26;19940;-79
2024/04/08 09:15:11;;;;;;;;;;;17.90;99.90;;;;;;5457774;26;20023;-78
2024/04/08 09:17:37;;;;;;;;;;;18.00;99.90;;;;;;5419166;26;19929;-77
2024/04/08 09:20:04;;;;;;;;;;;18.00;99.90;;;;;;5397222;26;20272;-78
2024/04/08 09:22:34;;;;;;;;;;;18.20;99.90;;;;;;5387652;26;19928;-76
2024/04/08 09:24:59;;;;;;;;;;;18.30;99.90;;;;;;5422033;26;19935;-79
2024/04/08 09:27:25;;;;;;;;;;;18.30;99.90;;;;;;5452337;26;19928;-78
2024/04/08 09:29:51;;;;;;;;;;;18.40;99.90;;;;;;5386400;26;19999;-76
2024/04/08 09:32:16;;;;;;;;;;;18.50;99.90;;;;;;5391115;26;20329;-76
2024/04/08 09:34:42;;;;;;;;;;;18.60;99.90;;;;;;5440262;26;19941;-78
2024/04/08 09:37:08;;;;;;;;;;;18.70;99.90;;;;;;5368267;26;19929;-78
2024/04/08 09:39:34;;;;;;;;;;;18.80;99.90;;;;;;5374861;26;19936;-78
2024/04/08 09:42:00;;;;;;;;;;;18.90;99.90;;;;;;5409183;26;20257;-80
2024/04/08 09:44:30;;;;;;;;;;;19.10;99.90;;;;;;5411297;26;19941;-78
2024/04/08 09:46:57;;;;;;;;;;;19.20;99.90;;;;;;5374094;26;19929;-79
2024/04/08 09:49:23;;;;;;;;;;;19.30;99.90;;;;;;5436028;26;19935;-79
2024/04/08 09:51:48;;;;;;;;;;;19.30;99.90;;;;;;5365483;26;19929;-75
2024/04/08 09:54:14;;;;;;;;;;;19.40;99.90;;;;;;5415040;26;19933;-76
2024/04/08 09:56:40;;;;;;;;;;;19.50;99.90;;;;;;5415202;26;19936;-75
2024/04/08 09:59:13;;;;;;;;;;;19.50;99.90;;;;;;5385708;26;19929;-76
2024/04/08 10:01:39;;;;;;;;;;;19.60;99.90;;;;;;5384770;26;19936;-75
2024/04/08 10:04:11;;;;;;;;;;;19.70;99.90;;;;;;5413230;26;20260;-76
2024/04/08 10:06:36;;;;;;;;;;;19.80;99.90;;;;;;5414963;26;20349;-78
2024/04/08 10:09:02;;;;;;;;;;;20.00;99.90;;;;;;5398109;26;19956;-75
2024/04/08 10:11:27;;;;;;;;;;;20.10;99.90;;;;;;5414521;26;19929;-75
2024/04/08 10:13:53;;;;;;;;;;;20.30;99.90;;;;;;5350552;26;19958;-76
2024/04/08 10:16:19;;;;;;;;;;;20.40;99.90;;;;;;5364467;26;19936;-77
2024/04/08 10:18:51;;;;;;;;;;;20.40;99.90;;;;;;5364404;26;19934;-76
2024/04/08 10:21:17;;;;;;;;;;;20.50;99.90;;;;;;5407425;26;19929;-76
2024/04/08 10:23:43;;;;;;;;;;;20.60;99.90;;;;;;5355592;26;19936;-77
2024/04/08 10:26:09;;;;;;;;;;;20.70;99.90;;;;;;5415631;26;20652;-76
2024/04/08 10:28:38;;;;;;;;;;;20.70;99.90;;;;;;5389632;26;20001;-78
2024/04/08 10:31:05;;;;;;;;;;;20.80;99.90;;;;;;5414212;26;19936;-77
2024/04/08 10:33:30;;;;;;;;;;;20.80;99.90;;;;;;5390025;26;20540;-77
2024/04/08 10:35:56;;;;;;;;;;;21.00;99.90;;;;;;5412507;26;19937;-78
2024/04/08 10:38:22;;;;;;;;;;;21.10;99.90;;;;;;5400593;26;19935;-80
2024/04/08 10:40:47;;;;;;;;;;;21.20;99.90;;;;;;5415798;26;19936;-77
2024/04/08 10:43:13;;;;;;;;;;;21.30;99.90;;;;;;5413272;26;20002;-79
2024/04/08 10:45:39;;;;;;;;;;;21.30;99.90;;;;;;5403441;26;19999;-77
2024/04/08 10:48:05;;;;;;;;;;;21.40;99.90;;;;;;5397943;26;20547;-77
2024/04/08 10:50:31;;;;;;;;;;;21.50;99.90;;;;;;5370126;26;20364;-78
2024/04/08 10:52:56;;;;;;;;;;;21.50;99.90;;;;;;5382791;26;20683;-77
2024/04/08 10:55:22;;;;;;;;;;;21.50;99.90;;;;;;5396100;26;20295;-78
2024/04/08 10:57:48;;;;;;;;;;;21.50;99.90;;;;;;5372356;26;19995;-78
2024/04/08 11:00:13;;;;;;;;;;;21.60;99.90;;;;;;5390562;26;19995;-76
2024/04/08 11:02:40;;;;;;;;;;;21.70;99.90;;;;;;5354000;26;20258;-76
2024/04/08 11:05:05;;;;;;;;;;;21.80;99.90;;;;;;5378480;26;20315;-76
2024/04/08 11:07:35;;;;;;;;;;;21.90;99.90;;;;;;5407114;26;20269;-77
2024/04/08 11:10:05;;;;;;;;;;;22.10;99.90;;;;;;5362688;26;20569;-77
2024/04/08 11:12:30;;;;;;;;;;;22.10;99.90;;;;;;5370842;26;19937;-77
2024/04/08 11:15:00;;;;;;;;;;;22.10;99.90;;;;;;5376681;26;19929;-76
2024/04/08 11:17:26;;;;;;;;;;;22.10;99.90;;;;;;5359451;26;19956;-76
2024/04/08 11:19:59;;;;;;;;;;;22.20;99.90;;;;;;5381441;26;19929;-77
2024/04/08 11:22:25;;;;;;;;;;;22.20;99.90;;;;;;5388587;26;20365;-76
2024/04/08 11:24:51;;;;;;;;;;;22.30;99.90;;;;;;5412483;26;19939;-77
2024/04/08 11:27:17;;;;;;;;;;;22.40;99.90;;;;;;5413862;26;19929;-78
2024/04/08 11:29:45;;;;;;;;;;;22.40;99.90;;;;;;5406676;26;19937;-78
2024/04/08 11:32:14;;;;;;;;;;;22.50;99.90;;;;;;5386675;26;19930;-78
2024/04/08 11:34:43;;;;;;;;;;;22.60;99.90;;;;;;5353265;26;20330;-77
2024/04/08 11:37:09;;;;;;;;;;;22.60;99.90;;;;;;5352396;26;19933;-78
2024/04/08 11:39:38;;;;;;;;;;;22.70;99.90;;;;;;5388285;26;19940;-80
2024/04/08 11:42:03;;;;;;;;;;;22.80;99.90;;;;;;5421551;26;19933;-79
2024/04/08 11:44:32;;;;;;;;;;;22.90;99.90;;;;;;5416845;26;19975;-79
2024/04/08 11:46:58;;;;;;;;;;;23.10;99.90;;;;;;5387765;26;19929;-80
2024/04/08 11:49:24;;;;;;;;;;;23.20;99.90;;;;;;5387536;26;19994;-79
2024/04/08 11:51:49;;;;;;;;;;;23.20;99.90;;;;;;5415140;26;19928;-78
2024/04/08 11:54:18;;;;;;;;;;;23.20;99.90;;;;;;5419083;26;19994;-78
2024/04/08 11:56:44;;;;;;;;;;;23.30;99.90;;;;;;5372683;26;19973;-78
2024/04/08 11:59:10;;;;;;;;;;;23.40;99.90;;;;;;5394868;26;20041;-78
2024/04/08 12:01:36;;;;;;;;;;;23.50;99.90;;;;;;5426888;26;19994;-79
2024/04/08 12:04:06;;;;;;;;;;;23.60;99.90;;;;;;5422254;26;19928;-77
2024/04/08 12:06:31;;;;;;;;;;;23.50;99.90;;;;;;5381459;26;20235;-77
2024/04/08 12:08:57;;;;;;;;;;;23.50;99.90;;;;;;5374582;26;19956;-78
2024/04/08 12:11:23;;;;;;;;;;;23.60;99.90;;;;;;5381783;26;19936;-78
2024/04/08 12:13:52;;;;;;;;;;;23.70;99.90;;;;;;5382636;26;19937;-78
2024/04/08 12:16:20;;;;;;;;;;;23.70;99.90;;;;;;5413364;26;19960;-78
2024/04/08 12:18:46;;;;;;;;;;;23.60;99.90;;;;;;5408294;26;19995;-78
2024/04/08 12:21:12;;;;;;;;;;;23.80;99.90;;;;;;5386973;26;19937;-78
2024/04/08 12:23:37;;;;;;;;;;;24.00;99.90;;;;;;5416054;26;19995;-78
2024/04/08 12:26:03;;;;;;;;;;;24.10;99.90;;;;;;5427352;26;19932;-78
2024/04/08 12:28:29;;;;;;;;;;;24.00;99.90;;;;;;5431711;26;20582;-81
2024/04/08 12:30:54;;;;;;;;;;;24.10;99.90;;;;;;5410800;26;20019;-79
2024/04/08 12:33:20;;;;;;;;;;;24.00;99.90;;;;;;5452431;26;19944;-80
2024/04/08 12:35:46;;;;;;;;;;;24.10;99.90;;;;;;5420150;26;19991;-78
2024/04/08 12:38:13;;;;;;;;;;;24.30;99.90;;;;;;5334800;26;19938;-79
2024/04/08 12:40:39;;;;;;;;;;;24.40;99.90;;;;;;5458944;26;19928;-81
2024/04/08 12:43:04;;;;;;;;;;;24.40;99.90;;;;;;5442607;26;19965;-80
2024/04/08 12:45:30;;;;;;;;;;;24.40;99.90;;;;;;5386413;26;19929;-80
2024/04/08 12:47:56;;;;;;;;;;;24.30;99.90;;;;;;5386233;26;19995;-80
2024/04/08 12:50:22;;;;;;;;;;;24.40;99.90;;;;;;5386582;26;19969;-78
2024/04/08 12:52:47;;;;;;;;;;;24.50;99.90;;;;;;5399072;26;19936;-79
2024/04/08 12:55:13;;;;;;;;;;;24.60;99.90;;;;;;5359865;26;19933;-79
2024/04/08 12:57:39;;;;;;;;;;;24.60;99.90;;;;;;5393003;26;19930;-79
2024/04/08 13:00:05;;;;;;;;;;;24.60;99.90;;;;;;5350605;26;19937;-79
2024/04/08 13:02:31;;;;;;;;;;;24.50;99.90;;;;;;5356465;26;19929;-79
2024/04/08 13:04:56;;;;;;;;;;;24.60;99.90;;;;;;5407655;26;19936;-79
2024/04/08 13:07:22;;;;;;;;;;;24.70;99.90;;;;;;5415709;26;19929;-79
2024/04/08 13:09:48;;;;;;;;;;;24.70;99.90;;;;;;5385350;26;19929;-79
2024/04/08 13:12:14;;;;;;;;;;;24.70;99.90;;;;;;5415268;26;19929;-78
2024/04/08 13:14:40;;;;;;;;;;;24.70;99.90;;;;;;5361285;26;20675;-80
2024/04/08 13:17:06;;;;;;;;;;;24.50;99.90;;;;;;5400639;26;19994;-79
2024/04/08 13:19:31;;;;;;;;;;;24.50;99.90;;;;;;5372797;26;19936;-80
2024/04/08 13:21:57;;;;;;;;;;;24.50;99.90;;;;;;5397778;26;19935;-79
2024/04/08 13:24:22;;;;;;;;;;;24.50;99.90;;;;;;5440896;26;19939;-80
2024/04/08 13:26:49;;;;;;;;;;;24.40;99.90;;;;;;5408212;26;20264;-81
2024/04/08 13:29:15;;;;;;;;;;;24.50;99.90;;;;;;5366188;26;20427;-80
2024/04/08 13:31:41;;;;;;;;;;;24.50;99.90;;;;;;5387734;26;19937;-80
2024/04/08 13:34:07;;;;;;;;;;;24.70;99.90;;;;;;5386681;26;20637;-82
2024/04/08 13:36:34;;;;;;;;;;;24.60;99.90;;;;;;5413305;26;20310;-80
2024/04/08 13:39:00;;;;;;;;;;;24.70;99.90;;;;;;5410556;26;19933;-80
2024/04/08 13:41:26;;;;;;;;;;;24.70;99.90;;;;;;5401174;26;20304;-81
2024/04/08 13:43:52;;;;;;;;;;;24.70;99.90;;;;;;5410397;26;19929;-81
2024/04/08 13:46:17;;;;;;;;;;;24.70;99.90;;;;;;5415021;26;20622;-81
2024/04/08 13:48:43;;;;;;;;;;;25.00;99.90;;;;;;5412388;26;19933;-79
2024/04/08 13:51:09;;;;;;;;;;;25.10;99.90;;;;;;5410197;26;19936;-81
2024/04/08 13:53:34;;;;;;;;;;;25.20;99.90;;;;;;5353348;26;19975;-81
2024/04/08 13:56:00;;;;;;;;;;;25.30;99.90;;;;;;5404442;26;19936;-80
2024/04/08 13:58:26;;;;;;;;;;;25.00;99.90;;;;;;5407140;26;20352;-80
2024/04/08 14:00:52;;;;;;;;;;;24.80;99.90;;;;;;5369753;26;19936;-80
2024/04/08 14:03:18;;;;;;;;;;;25.00;99.90;;;;;;5366145;26;19940;-78
2024/04/08 14:05:43;;;;;;;;;;;25.00;99.90;;;;;;5355427;26;19937;-79
2024/04/08 14:08:09;;;;;;;;;;;25.10;99.90;;;;;;5387039;26;19929;-80
2024/04/08 14:10:35;;;;;;;;;;;25.20;99.90;;;;;;5380946;26;20641;-79